createdAt,value
2022-10-06T00:09:48.305Z,0.00
2022-10-06T00:19:48.407Z,0.00
2022-10-06T00:29:48.428Z,0.00
2022-10-06T00:39:48.758Z,0.00
2022-10-06T00:49:48.777Z,0.00
2022-10-06T00:59:49.103Z,0.00
2022-10-06T01:09:49.128Z,0.00
2022-10-06T01:19:49.458Z,0.00
2022-10-06T01:29:49.485Z,0.00
2022-10-06T01:39:49.819Z,0.00
2022-10-06T01:49:49.880Z,0.00
2022-10-06T01:59:54.543Z,0.00
2022-10-06T02:09:50.232Z,0.00
2022-10-06T02:19:50.501Z,0.00
2022-10-06T02:29:50.546Z,0.00
2022-10-06T02:39:50.867Z,0.00
2022-10-06T02:49:50.914Z,0.00
2022-10-06T02:59:51.199Z,0.00
2022-10-06T03:09:51.233Z,0.00
2022-10-06T03:19:51.553Z,0.00
2022-10-06T03:29:51.618Z,0.00
2022-10-06T03:39:52.941Z,0.00
2022-10-06T03:49:51.964Z,0.00
2022-10-06T03:59:52.252Z,0.00
2022-10-06T04:09:52.278Z,0.00
2022-10-06T04:19:52.694Z,0.00
2022-10-06T04:29:52.709Z,0.00
2022-10-06T04:39:53.155Z,0.00
2022-10-06T04:49:53.175Z,0.00
2022-10-06T04:59:53.503Z,0.00
2022-10-06T05:09:53.529Z,0.00
2022-10-06T05:19:54.772Z,0.00
2022-10-06T05:29:54.043Z,0.00
2022-10-06T05:39:55.144Z,0.00
2022-10-06T05:49:54.240Z,0.00
2022-10-06T05:59:56.606Z,0.00
2022-10-06T06:09:54.445Z,5.62
2022-10-06T06:19:54.812Z,5.62
2022-10-06T06:29:54.851Z,5.62
2022-10-06T06:39:55.160Z,22.50
2022-10-06T06:49:55.210Z,28.12
2022-10-06T06:59:55.826Z,33.75
2022-10-06T07:09:55.806Z,45.00
2022-10-06T07:19:55.964Z,45.00
2022-10-06T07:29:56.479Z,56.25
2022-10-06T07:39:56.208Z,61.88
2022-10-06T07:49:56.233Z,67.50
2022-10-06T08:00:00.546Z,78.75
2022-10-06T08:09:57.624Z,90.00
2022-10-06T08:19:56.914Z,95.62
2022-10-06T08:29:56.940Z,101.25
2022-10-06T08:39:57.263Z,112.50
2022-10-06T08:49:57.768Z,118.12
2022-10-06T08:59:58.061Z,123.75
2022-10-06T09:09:58.126Z,129.38
2022-10-06T09:19:58.243Z,135.00
2022-10-06T09:29:58.453Z,140.62
2022-10-06T09:39:58.773Z,146.25
2022-10-06T09:49:58.720Z,146.25
2022-10-06T09:59:59.010Z,151.88
2022-10-06T10:09:58.958Z,157.50
2022-10-06T10:19:59.091Z,157.50
2022-10-06T10:29:59.198Z,157.50
2022-10-06T10:39:59.053Z,163.12
2022-10-06T10:49:59.083Z,163.12
2022-10-06T10:59:59.400Z,163.12
2022-10-06T11:09:59.420Z,168.75
2022-10-06T11:19:59.759Z,168.75
2022-10-06T11:30:00.173Z,174.38
2022-10-06T11:40:00.279Z,174.38
2022-10-06T11:50:00.175Z,174.38
2022-10-06T12:00:00.455Z,174.38
2022-10-06T12:10:00.474Z,174.38
2022-10-06T12:20:00.800Z,174.38
2022-10-06T12:30:01.531Z,174.38
2022-10-06T12:40:00.945Z,174.38
2022-10-06T12:50:01.178Z,174.38
2022-10-06T13:00:01.554Z,174.38
2022-10-06T13:10:01.657Z,174.38
2022-10-06T13:20:02.099Z,174.38
2022-10-06T13:30:01.967Z,174.38
2022-10-06T13:40:02.459Z,168.75
2022-10-06T13:50:02.987Z,163.12
2022-10-06T14:00:02.613Z,157.50
2022-10-06T14:10:02.736Z,151.88
2022-10-06T14:20:06.154Z,140.62
2022-10-06T14:30:03.191Z,135.00
2022-10-06T14:40:03.461Z,129.38
2022-10-06T14:50:03.315Z,123.75
2022-10-06T15:00:03.852Z,112.50
2022-10-06T15:10:03.735Z,95.62
2022-10-06T15:20:04.051Z,84.38
2022-10-06T15:30:04.087Z,22.50
2022-10-06T15:40:04.404Z,11.25
2022-10-06T15:50:04.426Z,5.62
2022-10-06T16:00:04.955Z,5.62
2022-10-06T16:10:04.777Z,5.62
2022-10-06T16:20:05.099Z,5.62
2022-10-06T16:30:05.154Z,0.00
2022-10-06T16:40:05.444Z,0.00
2022-10-06T16:50:05.484Z,0.00
2022-10-06T17:00:05.824Z,0.00
2022-10-06T17:10:20.173Z,0.00
2022-10-06T17:20:06.940Z,0.00
2022-10-06T17:30:06.291Z,0.00
2022-10-06T17:40:06.341Z,0.00
2022-10-06T17:50:06.782Z,0.00
2022-10-06T18:00:06.802Z,0.00
2022-10-06T18:10:07.129Z,0.00
2022-10-06T18:20:07.149Z,0.00
2022-10-06T18:30:07.940Z,0.00
2022-10-06T18:40:07.840Z,0.00
2022-10-06T18:50:07.878Z,0.00
2022-10-06T19:00:08.058Z,0.00
2022-10-06T19:10:08.128Z,0.00
2022-10-06T19:20:08.118Z,0.00
2022-10-06T19:30:08.338Z,0.00
2022-10-06T19:40:08.792Z,0.00
2022-10-06T19:50:12.646Z,0.00
2022-10-06T20:00:08.851Z,0.00
2022-10-06T20:10:09.126Z,0.00
2022-10-06T20:20:09.171Z,0.00
2022-10-06T20:30:09.479Z,0.00
2022-10-06T20:40:09.495Z,0.00
2022-10-06T20:50:09.893Z,0.00
2022-10-06T21:00:09.925Z,0.00
2022-10-06T21:10:10.334Z,0.00
2022-10-06T21:20:10.461Z,0.00
2022-10-06T21:30:10.602Z,0.00
2022-10-06T21:40:10.703Z,0.00
2022-10-06T21:50:10.926Z,0.00
2022-10-06T22:00:11.026Z,0.00
2022-10-06T22:10:11.171Z,0.00
2022-10-06T22:20:11.273Z,0.00
2022-10-06T22:30:11.422Z,0.00
2022-10-06T22:40:11.569Z,0.00
2022-10-06T22:50:11.788Z,0.00
2022-10-06T23:00:11.900Z,0.00
2022-10-06T23:10:11.996Z,0.00
2022-10-06T23:20:12.127Z,0.00
2022-10-06T23:30:12.319Z,0.00
2022-10-06T23:40:12.407Z,0.00
2022-10-06T23:50:12.501Z,0.00
